createdAt,value
2019-02-19T00:01:00.860Z,0.94
2019-02-19T00:03:29.933Z,0.95
2019-02-19T00:06:00.351Z,0.99
2019-02-19T00:08:29.476Z,0.88
2019-02-19T00:11:00.086Z,0.85
2019-02-19T00:13:29.166Z,0.78
2019-02-19T00:15:58.236Z,0.77
2019-02-19T00:18:27.476Z,0.71
2019-02-19T00:20:56.592Z,0.80
2019-02-19T00:23:25.702Z,0.76
2019-02-19T00:25:54.777Z,0.83
2019-02-19T00:28:24.001Z,0.84
2019-02-19T00:30:53.096Z,0.81
2019-02-19T00:33:22.231Z,0.73
2019-02-19T00:35:51.358Z,0.66
2019-02-19T00:38:20.794Z,0.67
2019-02-19T00:40:52.392Z,0.66
2019-02-19T00:43:30.520Z,0.59
2019-02-19T00:46:00.730Z,0.65
2019-02-19T00:48:30.233Z,0.68
2019-02-19T00:50:59.518Z,0.75
2019-02-19T00:53:28.929Z,0.67
2019-02-19T00:56:00.737Z,0.63
2019-02-19T00:58:29.867Z,0.71
2019-02-19T01:00:59.031Z,0.67
2019-02-19T01:03:28.155Z,0.71
2019-02-19T01:05:57.380Z,0.62
2019-02-19T01:08:26.495Z,0.75
2019-02-19T01:10:55.587Z,0.70
2019-02-19T01:13:24.755Z,0.70
2019-02-19T01:15:53.803Z,0.75
2019-02-19T01:18:22.983Z,0.66
2019-02-19T01:20:53.625Z,0.69
2019-02-19T01:23:22.772Z,0.69
2019-02-19T01:25:51.835Z,0.70
2019-02-19T01:28:21.002Z,0.70
2019-02-19T01:30:50.153Z,0.68
2019-02-19T01:33:19.256Z,0.63
2019-02-19T01:35:48.356Z,0.47
2019-02-19T01:38:19.634Z,0.38
2019-02-19T01:40:48.700Z,0.31
2019-02-19T01:43:17.851Z,0.34
2019-02-19T01:45:46.987Z,0.36
2019-02-19T01:48:16.098Z,0.33
2019-02-19T01:50:47.238Z,0.37
2019-02-19T01:53:17.517Z,0.29
2019-02-19T01:55:46.601Z,0.19
2019-02-19T01:58:15.666Z,0.17
2019-02-19T02:00:44.755Z,0.14
2019-02-19T02:03:13.850Z,0.11
2019-02-19T02:05:44.141Z,0.21
2019-02-19T02:08:13.188Z,0.20
2019-02-19T02:10:42.362Z,0.19
2019-02-19T02:13:11.412Z,0.03
2019-02-19T02:15:42.771Z,0.09
2019-02-19T02:18:11.298Z,0.16
2019-02-19T02:20:43.176Z,0.22
2019-02-19T02:23:12.323Z,0.24
2019-02-19T02:25:42.641Z,0.20
2019-02-19T02:28:11.727Z,0.13
2019-02-19T02:30:40.861Z,-0.01
2019-02-19T02:33:09.946Z,0.00
2019-02-19T02:35:39.101Z,0.01
2019-02-19T02:38:08.175Z,-0.01
2019-02-19T02:40:37.312Z,0.09
2019-02-19T02:43:06.418Z,0.13
2019-02-19T02:45:35.651Z,0.19
2019-02-19T02:48:04.796Z,0.07
2019-02-19T02:50:33.916Z,0.08
2019-02-19T02:53:03.031Z,0.13
2019-02-19T02:55:32.156Z,0.14
2019-02-19T02:58:01.261Z,0.18
2019-02-19T03:00:30.439Z,0.24
2019-02-19T03:02:59.521Z,0.33
2019-02-19T03:05:30.411Z,0.21
2019-02-19T03:08:02.678Z,0.07
2019-02-19T03:10:31.868Z,-0.01
2019-02-19T03:13:00.947Z,-0.06
2019-02-19T03:15:31.434Z,-0.01
2019-02-19T03:18:00.562Z,0.04
2019-02-19T03:20:29.722Z,0.04
2019-02-19T03:22:58.834Z,0.04
2019-02-19T03:25:27.943Z,-0.09
2019-02-19T03:27:57.127Z,-0.10
2019-02-19T03:30:29.985Z,0.01
2019-02-19T03:33:00.442Z,-0.04
2019-02-19T03:35:30.896Z,-0.11
2019-02-19T03:37:59.992Z,0.07
2019-02-19T03:40:29.776Z,-0.11
2019-02-19T03:43:00.575Z,-0.23
2019-02-19T03:45:29.985Z,-0.27
2019-02-19T03:47:59.097Z,-0.15
2019-02-19T03:50:31.217Z,-0.07
2019-02-19T03:53:00.365Z,0.04
2019-02-19T03:55:29.447Z,0.10
2019-02-19T03:57:58.628Z,0.13
2019-02-19T04:00:27.729Z,0.13
2019-02-19T04:02:56.922Z,0.06
2019-02-19T04:05:27.092Z,0.15
2019-02-19T04:07:56.280Z,0.26
2019-02-19T04:10:25.453Z,0.28
2019-02-19T04:12:54.627Z,0.27
2019-02-19T04:15:23.861Z,0.22
2019-02-19T04:17:52.926Z,0.21
2019-02-19T04:20:22.021Z,0.20
2019-02-19T04:22:51.222Z,0.18
2019-02-19T04:25:24.441Z,0.18
2019-02-19T04:27:54.676Z,0.05
2019-02-19T04:30:23.808Z,0.01
2019-02-19T04:32:52.944Z,0.09
2019-02-19T04:35:24.973Z,0.15
2019-02-19T04:37:54.159Z,0.04
2019-02-19T04:40:23.228Z,0.35
2019-02-19T04:42:53.318Z,0.35
2019-02-19T04:45:23.733Z,0.48
2019-02-19T04:47:52.816Z,0.50
2019-02-19T04:50:21.982Z,0.61
2019-02-19T04:52:52.701Z,0.55
2019-02-19T04:55:23.799Z,0.33
2019-02-19T04:57:52.890Z,0.21
2019-02-19T05:00:23.197Z,0.34
2019-02-19T05:02:52.349Z,0.26
2019-02-19T05:05:21.493Z,0.31
2019-02-19T05:07:50.623Z,0.38
2019-02-19T05:10:19.703Z,0.40
2019-02-19T05:12:50.836Z,0.39
2019-02-19T05:15:19.947Z,0.30
2019-02-19T05:17:49.002Z,0.35
2019-02-19T05:20:18.109Z,0.44
2019-02-19T05:22:47.239Z,0.37
2019-02-19T05:25:18.373Z,0.23
2019-02-19T05:27:47.439Z,0.35
2019-02-19T05:30:16.603Z,0.35
2019-02-19T05:32:45.731Z,0.38
2019-02-19T05:35:14.919Z,0.35
2019-02-19T05:37:44.050Z,0.33
2019-02-19T05:40:13.132Z,0.14
2019-02-19T05:42:42.283Z,0.12
2019-02-19T05:45:11.435Z,0.17
2019-02-19T05:47:40.549Z,0.19
2019-02-19T05:50:09.812Z,0.35
2019-02-19T05:52:38.870Z,0.35
2019-02-19T05:55:08.018Z,0.27
2019-02-19T05:57:37.115Z,0.26
2019-02-19T06:00:06.990Z,0.23
2019-02-19T06:02:36.169Z,0.29
2019-02-19T06:05:06.080Z,0.28
2019-02-19T06:07:35.150Z,0.11
2019-02-19T06:10:04.826Z,0.21
2019-02-19T06:12:36.030Z,0.37
2019-02-19T06:15:06.202Z,0.54
2019-02-19T06:17:35.442Z,0.54
2019-02-19T06:20:06.093Z,0.60
2019-02-19T06:22:35.203Z,0.69
2019-02-19T06:25:05.807Z,0.70
2019-02-19T06:27:34.967Z,0.82
2019-02-19T06:30:04.138Z,0.68
2019-02-19T06:32:33.235Z,0.60
2019-02-19T06:35:04.597Z,0.87
2019-02-19T06:37:33.693Z,1.03
2019-02-19T06:40:02.817Z,0.97
2019-02-19T06:42:31.985Z,1.08
2019-02-19T06:45:03.981Z,1.11
2019-02-19T06:47:33.069Z,1.36
2019-02-19T06:50:02.197Z,1.19
2019-02-19T06:52:31.635Z,1.44
2019-02-19T06:55:02.320Z,1.43
2019-02-19T06:57:33.784Z,1.48
2019-02-19T07:00:04.758Z,1.56
2019-02-19T07:02:40.229Z,1.67
2019-02-19T07:05:19.569Z,1.69
2019-02-19T07:07:48.753Z,1.75
2019-02-19T07:10:19.082Z,0.02
2019-02-19T07:12:50.751Z,1.90
2019-02-19T07:15:21.520Z,1.99
2019-02-19T07:17:50.605Z,2.06
2019-02-19T07:20:20.937Z,2.10
2019-02-19T07:22:53.972Z,2.19
2019-02-19T07:25:24.613Z,2.39
2019-02-19T07:27:53.716Z,2.54
2019-02-19T07:30:24.293Z,2.49
2019-02-19T07:32:53.430Z,2.57
2019-02-19T07:35:24.785Z,2.62
2019-02-19T07:37:57.767Z,2.69
2019-02-19T07:40:32.997Z,2.86
2019-02-19T07:43:02.133Z,2.99
2019-02-19T07:45:31.224Z,3.00
2019-02-19T07:48:00.344Z,2.89
2019-02-19T07:50:29.746Z,2.91
2019-02-19T07:52:58.865Z,2.98
2019-02-19T07:55:30.500Z,2.90
2019-02-19T07:57:59.645Z,2.78
2019-02-19T08:00:28.776Z,3.08
2019-02-19T08:02:57.891Z,3.12
2019-02-19T08:05:27.089Z,3.04
2019-02-19T08:07:58.974Z,2.94
2019-02-19T08:10:30.414Z,3.11
2019-02-19T08:12:59.487Z,3.17
2019-02-19T08:15:28.589Z,3.34
2019-02-19T08:17:57.652Z,3.48
2019-02-19T08:20:28.928Z,3.53
2019-02-19T08:22:58.017Z,3.64
2019-02-19T08:25:27.124Z,3.68
2019-02-19T08:27:56.204Z,3.71
2019-02-19T08:30:25.283Z,3.73
2019-02-19T08:32:54.403Z,3.67
2019-02-19T08:35:23.509Z,3.85
2019-02-19T08:37:52.574Z,3.88
2019-02-19T08:40:21.681Z,3.59
2019-02-19T08:42:50.829Z,4.00
2019-02-19T08:45:19.871Z,4.22
2019-02-19T08:47:48.991Z,4.43
2019-02-19T08:50:21.933Z,4.49
2019-02-19T08:52:51.035Z,4.52
2019-02-19T08:55:20.096Z,4.64
2019-02-19T08:57:49.186Z,4.70
2019-02-19T09:00:19.471Z,4.73
2019-02-19T09:02:48.605Z,4.61
2019-02-19T09:05:17.765Z,4.55
2019-02-19T09:07:46.907Z,4.68
2019-02-19T09:10:16.038Z,4.66
2019-02-19T09:12:46.538Z,4.64
2019-02-19T09:15:16.831Z,4.60
2019-02-19T09:17:52.051Z,4.91
2019-02-19T09:20:17.982Z,4.94
2019-02-19T09:22:47.049Z,5.09
2019-02-19T09:25:16.278Z,5.28
2019-02-19T09:27:45.339Z,5.43
2019-02-19T09:30:14.537Z,5.56
2019-02-19T09:32:43.587Z,5.79
2019-02-19T09:35:12.709Z,5.65
2019-02-19T09:37:41.819Z,5.88
2019-02-19T09:40:10.933Z,5.88
2019-02-19T09:42:40.229Z,5.91
2019-02-19T09:45:09.424Z,5.82
2019-02-19T09:47:38.481Z,5.72
2019-02-19T09:50:08.453Z,5.83
2019-02-19T09:52:37.526Z,5.66
2019-02-19T09:55:09.193Z,5.77
2019-02-19T09:57:38.337Z,6.00
2019-02-19T10:00:09.137Z,6.31
2019-02-19T10:02:38.178Z,6.58
2019-02-19T10:05:08.799Z,6.68
2019-02-19T10:07:37.907Z,6.81
2019-02-19T10:10:11.246Z,6.84
2019-02-19T10:12:41.873Z,6.76
2019-02-19T10:15:12.159Z,6.78
2019-02-19T10:17:41.253Z,6.85
2019-02-19T10:20:13.421Z,7.26
2019-02-19T10:22:42.689Z,7.06
2019-02-19T10:25:12.547Z,7.08
2019-02-19T10:27:41.594Z,7.17
2019-02-19T10:30:13.730Z,6.16
2019-02-19T10:32:42.843Z,7.18
2019-02-19T10:35:12.215Z,7.16
2019-02-19T10:37:41.283Z,7.44
2019-02-19T10:40:12.490Z,7.69
2019-02-19T10:42:41.520Z,7.58
2019-02-19T10:45:13.041Z,7.94
2019-02-19T10:47:42.293Z,7.83
2019-02-19T10:50:12.995Z,7.91
2019-02-19T10:52:42.175Z,8.35
2019-02-19T10:55:11.412Z,8.51
2019-02-19T10:57:44.769Z,8.75
2019-02-19T11:00:16.995Z,9.08
2019-02-19T11:02:46.112Z,8.93
2019-02-19T11:05:17.329Z,8.09
2019-02-19T11:07:46.687Z,9.49
2019-02-19T11:10:15.869Z,9.46
2019-02-19T11:12:46.326Z,9.81
2019-02-19T11:15:17.326Z,9.69
2019-02-19T11:17:46.789Z,9.43
2019-02-19T11:20:15.948Z,9.57
2019-02-19T11:22:45.130Z,9.40
2019-02-19T11:25:14.911Z,8.91
2019-02-19T11:27:44.182Z,9.24
2019-02-19T11:30:14.983Z,9.66
2019-02-19T11:32:44.295Z,9.99
2019-02-19T11:35:15.625Z,10.84
2019-02-19T11:37:44.850Z,11.47
2019-02-19T11:40:15.113Z,11.44
2019-02-19T11:42:44.231Z,11.75
2019-02-19T11:45:14.057Z,11.59
2019-02-19T11:47:43.175Z,11.47
2019-02-19T11:50:13.943Z,10.96
2019-02-19T11:52:43.346Z,10.80
2019-02-19T11:55:13.046Z,10.41
2019-02-19T11:57:43.156Z,9.40
2019-02-19T12:00:15.472Z,10.80
2019-02-19T12:02:44.678Z,11.12
2019-02-19T12:05:13.886Z,10.76
2019-02-19T12:07:43.006Z,10.45
2019-02-19T12:10:12.292Z,10.09
2019-02-19T12:12:45.067Z,10.25
2019-02-19T12:15:14.204Z,10.14
2019-02-19T12:17:44.392Z,10.19
2019-02-19T12:20:14.725Z,10.45
2019-02-19T12:22:43.867Z,10.44
2019-02-19T12:25:14.054Z,9.86
2019-02-19T12:27:43.254Z,10.06
2019-02-19T12:30:13.161Z,10.25
2019-02-19T12:32:42.437Z,9.69
2019-02-19T12:35:13.788Z,9.91
2019-02-19T12:37:42.916Z,9.68
2019-02-19T12:40:12.013Z,9.96
2019-02-19T12:42:41.129Z,9.88
2019-02-19T12:45:10.950Z,9.66
2019-02-19T12:47:40.130Z,9.90
2019-02-19T12:50:10.971Z,9.86
2019-02-19T12:52:40.304Z,9.75
2019-02-19T12:55:10.290Z,9.64
2019-02-19T12:57:39.401Z,9.39
2019-02-19T13:00:13.446Z,9.60
2019-02-19T13:02:44.034Z,9.37
2019-02-19T13:05:13.605Z,9.46
2019-02-19T13:07:44.582Z,9.40
2019-02-19T13:10:14.621Z,9.46
2019-02-19T13:12:45.843Z,9.38
2019-02-19T13:15:15.618Z,9.46
2019-02-19T13:17:44.734Z,9.58
2019-02-19T13:20:14.246Z,9.65
2019-02-19T13:22:43.405Z,9.50
2019-02-19T13:25:12.448Z,9.51
2019-02-19T13:27:41.673Z,9.94
2019-02-19T13:30:13.209Z,9.71
2019-02-19T13:32:43.814Z,9.81
2019-02-19T13:35:13.163Z,9.83
2019-02-19T13:37:43.532Z,9.66
2019-02-19T13:40:13.021Z,9.65
2019-02-19T13:42:42.162Z,9.69
2019-02-19T13:45:12.269Z,10.02
2019-02-19T13:47:41.414Z,9.89
2019-02-19T13:50:13.555Z,10.02
2019-02-19T13:53:04.591Z,10.29
2019-02-19T13:55:39.479Z,9.70
2019-02-19T13:58:08.652Z,9.87
2019-02-19T14:00:39.932Z,10.00
2019-02-19T14:03:09.003Z,10.19
2019-02-19T14:05:38.163Z,10.23
2019-02-19T14:08:14.337Z,9.95
2019-02-19T14:10:38.235Z,10.07
2019-02-19T14:13:07.369Z,9.72
2019-02-19T14:16:00.547Z,9.73
2019-02-19T14:18:48.808Z,9.75
2019-02-19T14:21:46.301Z,10.02
2019-02-19T14:24:43.495Z,9.77
2019-02-19T14:27:20.731Z,9.93
2019-02-19T14:30:10.868Z,9.61
2019-02-19T14:33:05.188Z,9.26
2019-02-19T14:35:51.954Z,9.16
2019-02-19T14:38:52.767Z,9.29
2019-02-19T14:41:53.957Z,9.46
2019-02-19T14:44:43.611Z,9.56
2019-02-19T14:47:39.256Z,9.66
2019-02-19T14:50:27.935Z,9.60
2019-02-19T14:53:33.875Z,9.67
2019-02-19T14:56:40.379Z,9.74
2019-02-19T14:59:27.774Z,9.86
2019-02-19T15:02:17.340Z,9.71
2019-02-19T15:05:24.556Z,9.84
2019-02-19T15:08:12.693Z,9.93
2019-02-19T15:11:00.827Z,9.82
2019-02-19T15:13:53.970Z,9.64
2019-02-19T15:16:54.472Z,9.60
2019-02-19T15:19:39.199Z,9.43
2019-02-19T15:22:44.746Z,9.32
2019-02-19T15:25:44.159Z,9.35
2019-02-19T15:28:35.545Z,9.42
2019-02-19T15:31:22.452Z,9.19
2019-02-19T15:34:13.259Z,9.22
2019-02-19T15:37:00.142Z,9.26
2019-02-19T15:39:54.302Z,9.22
2019-02-19T15:42:40.951Z,9.18
2019-02-19T15:45:31.759Z,9.26
2019-02-19T15:48:22.905Z,9.21
2019-02-19T15:51:02.807Z,9.14
2019-02-19T15:53:53.795Z,9.09
2019-02-19T15:56:47.751Z,9.02
2019-02-19T15:59:34.333Z,9.04
2019-02-19T16:02:17.895Z,8.94
2019-02-19T16:05:12.433Z,9.04
2019-02-19T16:07:51.470Z,8.92
2019-02-19T16:10:35.883Z,8.83
2019-02-19T16:13:12.834Z,8.78
2019-02-19T16:16:06.622Z,8.76
2019-02-19T16:18:57.364Z,8.76
2019-02-19T16:22:00.487Z,8.66
2019-02-19T16:25:05.117Z,8.53
2019-02-19T16:27:53.102Z,8.50
2019-02-19T16:30:47.349Z,8.44
2019-02-19T16:33:23.986Z,8.30
2019-02-19T16:36:27.353Z,8.30
2019-02-19T16:39:10.510Z,8.19
2019-02-19T16:42:00.159Z,8.10
2019-02-19T16:44:40.529Z,7.94
2019-02-19T16:47:31.625Z,7.84
2019-02-19T16:50:26.649Z,7.56
2019-02-19T16:53:30.049Z,7.66
2019-02-19T16:56:20.466Z,7.44
2019-02-19T16:59:14.376Z,7.38
2019-02-19T17:02:02.589Z,7.25
2019-02-19T17:04:49.251Z,7.02
2019-02-19T17:07:35.913Z,6.77
2019-02-19T17:10:23.326Z,6.57
2019-02-19T17:13:21.491Z,6.29
2019-02-19T17:16:24.603Z,6.15
2019-02-19T17:19:11.328Z,6.00
2019-02-19T17:21:47.479Z,5.86
2019-02-19T17:24:53.003Z,5.80
2019-02-19T17:27:51.092Z,5.50
2019-02-19T17:30:38.132Z,5.32
2019-02-19T17:33:21.675Z,5.39
2019-02-19T17:39:16.411Z,5.13
2019-02-19T17:42:01.615Z,4.85
2019-02-19T17:44:50.110Z,4.77
2019-02-19T17:47:49.389Z,4.82
2019-02-19T17:50:40.437Z,4.60
2019-02-19T17:53:27.033Z,4.37
2019-02-19T17:56:21.144Z,4.25
2019-02-19T17:59:07.579Z,4.22
2019-02-19T18:01:57.194Z,4.23
2019-02-19T18:04:48.208Z,4.15
2019-02-19T18:07:42.103Z,4.12
2019-02-19T18:10:45.349Z,4.08
2019-02-19T18:13:21.716Z,4.08
2019-02-19T18:16:10.264Z,3.98
2019-02-19T18:18:49.150Z,3.97
2019-02-19T18:21:25.799Z,3.91
2019-02-19T18:23:54.915Z,3.81
2019-02-19T18:26:25.125Z,3.84
2019-02-19T18:28:55.564Z,3.76
2019-02-19T18:31:24.607Z,3.82
2019-02-19T18:33:54.671Z,3.72
2019-02-19T18:36:23.815Z,3.70
2019-02-19T18:38:55.130Z,3.59
2019-02-19T18:41:24.256Z,3.61
2019-02-19T18:43:53.662Z,3.51
2019-02-19T18:46:22.909Z,3.53
2019-02-19T18:48:53.173Z,3.54
2019-02-19T18:51:22.313Z,3.50
2019-02-19T18:53:51.400Z,3.38
2019-02-19T18:56:20.634Z,3.53
2019-02-19T18:58:49.764Z,3.30
2019-02-19T19:01:19.094Z,2.99
2019-02-19T19:03:48.246Z,3.11
2019-02-19T19:06:19.438Z,3.17
2019-02-19T19:08:48.639Z,3.13
2019-02-19T19:11:18.194Z,3.10
2019-02-19T19:13:47.337Z,3.12
2019-02-19T19:16:20.187Z,3.17
2019-02-19T19:18:50.496Z,2.76
2019-02-19T19:21:20.671Z,2.58
2019-02-19T19:23:49.773Z,2.68
2019-02-19T19:26:18.993Z,2.66
2019-02-19T19:28:48.052Z,2.60
2019-02-19T19:31:20.041Z,2.63
2019-02-19T19:33:49.087Z,2.56
2019-02-19T19:36:18.197Z,2.64
2019-02-19T19:38:47.272Z,3.13
2019-02-19T19:41:16.393Z,2.96
2019-02-19T19:43:45.435Z,2.77
2019-02-19T19:46:14.567Z,2.86
2019-02-19T19:48:43.617Z,3.11
2019-02-19T19:51:17.391Z,3.30
2019-02-19T19:53:44.641Z,3.07
2019-02-19T19:56:13.757Z,2.89
2019-02-19T19:58:43.897Z,2.69
2019-02-19T20:01:13.082Z,2.57
2019-02-19T20:03:42.117Z,2.17
2019-02-19T20:06:13.497Z,2.22
2019-02-19T20:08:42.553Z,2.24
2019-02-19T20:11:11.977Z,2.23
2019-02-19T20:13:41.106Z,2.19
2019-02-19T20:16:12.462Z,2.01
2019-02-19T20:18:41.643Z,2.03
2019-02-19T20:21:11.089Z,2.12
2019-02-19T20:23:40.473Z,2.12
2019-02-19T20:26:09.684Z,1.85
2019-02-19T20:28:39.078Z,1.69
2019-02-19T20:31:08.133Z,1.74
2019-02-19T20:33:37.954Z,1.78
2019-02-19T20:36:07.253Z,1.74
2019-02-19T20:38:36.397Z,1.61
2019-02-19T20:41:05.478Z,1.68
2019-02-19T20:43:34.544Z,1.66
2019-02-19T20:46:03.627Z,1.66
2019-02-19T20:48:32.697Z,1.72
2019-02-19T20:51:01.816Z,1.50
2019-02-19T20:53:30.983Z,1.61
2019-02-19T20:56:00.117Z,1.55
2019-02-19T20:58:29.327Z,1.54
2019-02-19T21:00:58.496Z,1.56
2019-02-19T21:03:27.609Z,1.47
2019-02-19T21:05:56.712Z,1.60
2019-02-19T21:08:25.809Z,1.62
2019-02-19T21:10:54.908Z,1.55
2019-02-19T21:13:24.104Z,1.48
2019-02-19T21:15:53.227Z,1.53
2019-02-19T21:18:22.305Z,1.56
2019-02-19T21:20:55.050Z,1.53
2019-02-19T21:23:24.237Z,1.40
2019-02-19T21:25:54.426Z,1.25
2019-02-19T21:28:24.771Z,1.23
2019-02-19T21:30:54.125Z,1.24
2019-02-19T21:33:23.302Z,1.24
2019-02-19T21:35:52.831Z,1.05
2019-02-19T21:38:23.026Z,0.89
2019-02-19T21:40:53.907Z,0.93
2019-02-19T21:43:23.031Z,0.47
2019-02-19T21:45:52.177Z,0.67
2019-02-19T21:48:21.293Z,0.56
2019-02-19T21:50:50.357Z,0.46
2019-02-19T21:53:19.461Z,0.63
2019-02-19T21:55:50.786Z,0.70
2019-02-19T21:58:19.905Z,0.89
2019-02-19T22:00:49.072Z,0.99
2019-02-19T22:03:18.186Z,0.89
2019-02-19T22:05:47.271Z,0.91
2019-02-19T22:08:16.320Z,1.03
2019-02-19T22:10:45.443Z,0.99
2019-02-19T22:13:14.536Z,1.07
2019-02-19T22:15:43.695Z,0.66
2019-02-19T22:18:12.842Z,0.77
2019-02-19T22:20:52.656Z,0.67
2019-02-19T22:23:21.713Z,0.53
2019-02-19T22:25:50.771Z,0.75
2019-02-19T22:28:22.970Z,0.88
2019-02-19T22:30:52.182Z,0.61
2019-02-19T22:33:21.277Z,0.57
2019-02-19T22:35:50.369Z,0.71
2019-02-19T22:38:19.463Z,0.73
2019-02-19T22:40:54.934Z,0.78
2019-02-19T22:43:19.411Z,0.76
2019-02-19T22:45:48.566Z,0.61
2019-02-19T22:48:17.586Z,0.62
2019-02-19T22:50:46.741Z,0.68
2019-02-19T22:53:42.397Z,0.65
2019-02-19T22:56:21.294Z,0.72
2019-02-19T22:58:52.159Z,0.76
2019-02-19T23:01:39.638Z,0.78
2019-02-19T23:04:08.754Z,0.69
2019-02-19T23:06:39.345Z,0.62
2019-02-19T23:09:08.501Z,0.66
2019-02-19T23:11:37.583Z,0.62
2019-02-19T23:14:06.609Z,0.53
2019-02-19T23:16:35.744Z,0.48
2019-02-19T23:19:04.848Z,0.38
2019-02-19T23:21:33.968Z,0.39
2019-02-19T23:24:03.056Z,0.47
2019-02-19T23:26:33.697Z,0.55
2019-02-19T23:29:02.791Z,0.57
2019-02-19T23:31:31.878Z,0.60
2019-02-19T23:34:01.017Z,0.55
2019-02-19T23:37:04.324Z,0.49
2019-02-19T23:39:43.659Z,0.39
2019-02-19T23:42:09.061Z,0.36
2019-02-19T23:44:38.215Z,0.32
2019-02-19T23:47:07.295Z,0.25
2019-02-19T23:49:36.398Z,0.29
2019-02-19T23:52:05.527Z,-0.23
2019-02-19T23:54:34.593Z,0.21
2019-02-19T23:57:03.740Z,0.22
2019-02-19T23:59:32.843Z,0.21
